sensor_id;sensor_type;location;lat;lon;timestamp;temperature;humidity
18268;DHT22;9260;49.998;19.880;2022-07-10T00:03:43;10.70;1.00
18268;DHT22;9260;49.998;19.880;2022-07-10T00:13:48;10.60;1.00
18268;DHT22;9260;49.998;19.880;2022-07-10T00:23:52;10.70;1.00
18268;DHT22;9260;49.998;19.880;2022-07-10T00:33:57;10.70;1.00
18268;DHT22;9260;49.998;19.880;2022-07-10T00:44:02;10.40;1.00
18268;DHT22;9260;49.998;19.880;2022-07-10T00:54:08;10.40;1.00
18268;DHT22;9260;49.998;19.880;2022-07-10T01:04:12;10.80;1.00
18268;DHT22;9260;49.998;19.880;2022-07-10T01:14:17;10.80;1.00
18268;DHT22;9260;49.998;19.880;2022-07-10T01:24:22;11.00;99.90
18268;DHT22;9260;49.998;19.880;2022-07-10T01:34:26;11.20;99.90
18268;DHT22;9260;49.998;19.880;2022-07-10T01:44:31;11.50;99.90
18268;DHT22;9260;49.998;19.880;2022-07-10T01:54:35;11.40;99.90
18268;DHT22;9260;49.998;19.880;2022-07-10T02:04:40;10.90;1.00
18268;DHT22;9260;49.998;19.880;2022-07-10T02:14:44;10.60;1.00
18268;DHT22;9260;49.998;19.880;2022-07-10T02:24:49;10.60;1.00
18268;DHT22;9260;49.998;19.880;2022-07-10T02:34:53;10.90;99.90
18268;DHT22;9260;49.998;19.880;2022-07-10T02:44:58;11.10;1.00
18268;DHT22;9260;49.998;19.880;2022-07-10T02:55:02;11.00;1.00
18268;DHT22;9260;49.998;19.880;2022-07-10T03:05:08;11.40;99.90
18268;DHT22;9260;49.998;19.880;2022-07-10T03:15:12;11.80;99.90
18268;DHT22;9260;49.998;19.880;2022-07-10T03:25:18;12.20;1.00
18268;DHT22;9260;49.998;19.880;2022-07-10T03:35:21;12.20;99.90
18268;DHT22;9260;49.998;19.880;2022-07-10T03:45:29;12.20;99.90
18268;DHT22;9260;49.998;19.880;2022-07-10T03:55:32;12.50;99.90
18268;DHT22;9260;49.998;19.880;2022-07-10T04:05:38;13.00;99.90
18268;DHT22;9260;49.998;19.880;2022-07-10T04:15:42;13.20;99.90
18268;DHT22;9260;49.998;19.880;2022-07-10T04:25:48;13.40;99.90
18268;DHT22;9260;49.998;19.880;2022-07-10T04:35:51;13.80;99.90
18268;DHT22;9260;49.998;19.880;2022-07-10T04:45:57;14.00;99.90
18268;DHT22;9260;49.998;19.880;2022-07-10T04:56:01;14.20;99.90
18268;DHT22;9260;49.998;19.880;2022-07-10T05:06:07;14.20;99.90
18268;DHT22;9260;49.998;19.880;2022-07-10T05:16:11;14.60;99.90
18268;DHT22;9260;49.998;19.880;2022-07-10T05:26:23;14.80;99.90
18268;DHT22;9260;49.998;19.880;2022-07-10T05:36:26;14.60;99.90
18268;DHT22;9260;49.998;19.880;2022-07-10T05:46:31;14.50;99.90
18268;DHT22;9260;49.998;19.880;2022-07-10T05:56:35;14.50;99.90
18268;DHT22;9260;49.998;19.880;2022-07-10T06:06:41;14.70;99.90
18268;DHT22;9260;49.998;19.880;2022-07-10T06:16:45;14.60;99.90
18268;DHT22;9260;49.998;19.880;2022-07-10T06:26:50;15.20;99.90
18268;DHT22;9260;49.998;19.880;2022-07-10T06:36:54;17.10;99.90
18268;DHT22;9260;49.998;19.880;2022-07-10T06:46:59;17.40;99.90
18268;DHT22;9260;49.998;19.880;2022-07-10T06:57:21;17.40;99.90
18268;DHT22;9260;49.998;19.880;2022-07-10T07:07:26;17.60;99.90
18268;DHT22;9260;49.998;19.880;2022-07-10T07:17:30;18.40;99.90
18268;DHT22;9260;49.998;19.880;2022-07-10T07:27:39;19.70;1.00
18268;DHT22;9260;49.998;19.880;2022-07-10T07:37:44;19.80;99.90
18268;DHT22;9260;49.998;19.880;2022-07-10T07:47:51;20.60;99.90
18268;DHT22;9260;49.998;19.880;2022-07-10T07:57:57;20.00;1.00
18268;DHT22;9260;49.998;19.880;2022-07-10T08:08:03;19.90;99.90
18268;DHT22;9260;49.998;19.880;2022-07-10T08:18:10;21.00;99.90
18268;DHT22;9260;49.998;19.880;2022-07-10T08:28:15;20.80;99.90
18268;DHT22;9260;49.998;19.880;2022-07-10T08:38:25;22.20;99.90
18268;DHT22;9260;49.998;19.880;2022-07-10T08:48:32;19.20;1.00
18268;DHT22;9260;49.998;19.880;2022-07-10T08:58:36;19.00;1.00
18268;DHT22;9260;49.998;19.880;2022-07-10T09:08:58;19.00;99.90
18268;DHT22;9260;49.998;19.880;2022-07-10T09:19:16;25.70;99.90
18268;DHT22;9260;49.998;19.880;2022-07-10T09:29:22;22.70;99.90
18268;DHT22;9260;49.998;19.880;2022-07-10T09:39:26;19.40;99.90
18268;DHT22;9260;49.998;19.880;2022-07-10T09:49:31;19.40;99.90
18268;DHT22;9260;49.998;19.880;2022-07-10T09:59:35;18.70;99.90
18268;DHT22;9260;49.998;19.880;2022-07-10T10:09:48;22.10;99.90
18268;DHT22;9260;49.998;19.880;2022-07-10T10:19:59;25.70;99.90
18268;DHT22;9260;49.998;19.880;2022-07-10T10:30:23;25.40;99.90
18268;DHT22;9260;49.998;19.880;2022-07-10T10:40:31;23.90;99.90
18268;DHT22;9260;49.998;19.880;2022-07-10T10:50:38;20.80;99.90
18268;DHT22;9260;49.998;19.880;2022-07-10T11:00:44;20.90;99.90
18268;DHT22;9260;49.998;19.880;2022-07-10T11:10:51;23.10;99.90
18268;DHT22;9260;49.998;19.880;2022-07-10T11:21:00;33.30;99.90
18268;DHT22;9260;49.998;19.880;2022-07-10T11:31:07;33.80;1.00
18268;DHT22;9260;49.998;19.880;2022-07-10T11:41:18;30.00;99.90
18268;DHT22;9260;49.998;19.880;2022-07-10T11:51:26;24.70;99.90
18268;DHT22;9260;49.998;19.880;2022-07-10T12:01:32;21.20;99.90
18268;DHT22;9260;49.998;19.880;2022-07-10T12:11:37;23.80;99.90
18268;DHT22;9260;49.998;19.880;2022-07-10T12:21:43;26.20;99.90
18268;DHT22;9260;49.998;19.880;2022-07-10T12:31:51;25.40;99.90
18268;DHT22;9260;49.998;19.880;2022-07-10T12:41:59;24.50;99.90
18268;DHT22;9260;49.998;19.880;2022-07-10T12:52:19;24.20;99.90
18268;DHT22;9260;49.998;19.880;2022-07-10T13:02:31;24.10;99.90
18268;DHT22;9260;49.998;19.880;2022-07-10T13:12:36;22.30;99.90
18268;DHT22;9260;49.998;19.880;2022-07-10T13:22:41;21.10;99.90
18268;DHT22;9260;49.998;19.880;2022-07-10T13:32:47;22.40;99.90
18268;DHT22;9260;49.998;19.880;2022-07-10T13:42:50;22.20;99.90
18268;DHT22;9260;49.998;19.880;2022-07-10T13:52:56;22.10;99.90
18268;DHT22;9260;49.998;19.880;2022-07-10T14:03:00;21.80;99.90
18268;DHT22;9260;49.998;19.880;2022-07-10T14:13:05;21.20;99.90
18268;DHT22;9260;49.998;19.880;2022-07-10T14:23:13;21.00;99.90
18268;DHT22;9260;49.998;19.880;2022-07-10T14:33:18;20.00;99.90
18268;DHT22;9260;49.998;19.880;2022-07-10T14:43:22;20.20;99.90
18268;DHT22;9260;49.998;19.880;2022-07-10T14:53:28;20.90;99.90
18268;DHT22;9260;49.998;19.880;2022-07-10T15:03:32;20.30;99.90
18268;DHT22;9260;49.998;19.880;2022-07-10T15:13:37;19.70;99.90
18268;DHT22;9260;49.998;19.880;2022-07-10T15:23:41;19.90;99.90
18268;DHT22;9260;49.998;19.880;2022-07-10T15:33:47;19.70;99.90
18268;DHT22;9260;49.998;19.880;2022-07-10T15:43:50;19.30;99.90
18268;DHT22;9260;49.998;19.880;2022-07-10T15:53:57;19.20;99.90
18268;DHT22;9260;49.998;19.880;2022-07-10T16:04:00;18.50;99.90
18268;DHT22;9260;49.998;19.880;2022-07-10T16:14:05;18.30;99.90
18268;DHT22;9260;49.998;19.880;2022-07-10T16:24:09;17.70;99.90
18268;DHT22;9260;49.998;19.880;2022-07-10T16:34:15;17.60;99.90
18268;DHT22;9260;49.998;19.880;2022-07-10T16:44:18;17.10;99.90
18268;DHT22;9260;49.998;19.880;2022-07-10T16:54:30;16.90;99.90
18268;DHT22;9260;49.998;19.880;2022-07-10T17:04:34;15.50;99.90
18268;DHT22;9260;49.998;19.880;2022-07-10T17:14:42;15.00;99.90
18268;DHT22;9260;49.998;19.880;2022-07-10T17:24:46;14.60;99.90
18268;DHT22;9260;49.998;19.880;2022-07-10T17:34:51;14.60;99.90
18268;DHT22;9260;49.998;19.880;2022-07-10T17:44:55;14.30;99.90
18268;DHT22;9260;49.998;19.880;2022-07-10T17:55:00;13.90;99.90
18268;DHT22;9260;49.998;19.880;2022-07-10T18:05:05;13.50;99.90
18268;DHT22;9260;49.998;19.880;2022-07-10T18:15:10;13.20;99.90
18268;DHT22;9260;49.998;19.880;2022-07-10T18:25:18;12.90;99.90
18268;DHT22;9260;49.998;19.880;2022-07-10T18:35:23;12.60;99.90
18268;DHT22;9260;49.998;19.880;2022-07-10T18:45:27;12.30;99.90
18268;DHT22;9260;49.998;19.880;2022-07-10T18:55:32;12.10;99.90
18268;DHT22;9260;49.998;19.880;2022-07-10T19:05:36;12.20;99.90
18268;DHT22;9260;49.998;19.880;2022-07-10T19:15:42;12.30;99.90
18268;DHT22;9260;49.998;19.880;2022-07-10T19:25:46;12.30;99.90
18268;DHT22;9260;49.998;19.880;2022-07-10T19:35:52;12.50;99.90
18268;DHT22;9260;49.998;19.880;2022-07-10T19:45:55;12.40;99.90
18268;DHT22;9260;49.998;19.880;2022-07-10T19:56:01;12.30;99.90
18268;DHT22;9260;49.998;19.880;2022-07-10T20:06:05;12.30;99.90
18268;DHT22;9260;49.998;19.880;2022-07-10T20:16:12;12.30;99.90
18268;DHT22;9260;49.998;19.880;2022-07-10T20:26:17;12.10;99.90
18268;DHT22;9260;49.998;19.880;2022-07-10T20:36:23;12.00;99.90
18268;DHT22;9260;49.998;19.880;2022-07-10T20:46:44;12.00;99.90
18268;DHT22;9260;49.998;19.880;2022-07-10T20:56:49;11.90;99.90
18268;DHT22;9260;49.998;19.880;2022-07-10T21:06:53;11.60;99.90
18268;DHT22;9260;49.998;19.880;2022-07-10T21:16:58;11.70;99.90
18268;DHT22;9260;49.998;19.880;2022-07-10T21:27:02;11.60;99.90
18268;DHT22;9260;49.998;19.880;2022-07-10T21:37:08;11.40;99.90
18268;DHT22;9260;49.998;19.880;2022-07-10T21:47:12;11.30;99.90
18268;DHT22;9260;49.998;19.880;2022-07-10T21:57:17;11.40;99.90
18268;DHT22;9260;49.998;19.880;2022-07-10T22:07:21;11.50;99.90
18268;DHT22;9260;49.998;19.880;2022-07-10T22:17:27;11.50;99.90
18268;DHT22;9260;49.998;19.880;2022-07-10T22:27:31;11.60;99.90
18268;DHT22;9260;49.998;19.880;2022-07-10T22:37:36;11.60;99.90
18268;DHT22;9260;49.998;19.880;2022-07-10T22:47:40;11.70;99.90
18268;DHT22;9260;49.998;19.880;2022-07-10T22:57:46;11.60;99.90
18268;DHT22;9260;49.998;19.880;2022-07-10T23:07:50;11.20;99.90
18268;DHT22;9260;49.998;19.880;2022-07-10T23:17:55;11.30;99.90
18268;DHT22;9260;49.998;19.880;2022-07-10T23:27:59;11.40;99.90
18268;DHT22;9260;49.998;19.880;2022-07-10T23:38:04;11.50;99.90
18268;DHT22;9260;49.998;19.880;2022-07-10T23:48:08;11.60;99.90
18268;DHT22;9260;49.998;19.880;2022-07-10T23:58:14;11.60;99.90
